Time;durP1;ratioP1;P1;durP2;ratioP2;P2;SDS_P1;SDS_P2;PMS_P1;PMS_P2;Temp;Humidity;BMP_temperature;BMP_pressure;BME280_temperature;BME280_humidity;BME280_pressure;Samples;Min_cycle;Max_cycle;Signal;HPM_P1;HPM_P2
2022/08/29 00:02:23;;;;;;;9.60;4.57;;;14.50;99.90;;;;;;5033489;28;20041;-65
2022/08/29 00:04:48;;;;;;;8.15;3.95;;;14.80;99.90;;;;;;5033187;28;20558;-65
2022/08/29 00:07:14;;;;;;;6.68;3.75;;;14.60;99.90;;;;;;5033433;28;20064;-65
2022/08/29 00:09:40;;;;;;;7.85;3.75;;;;;;;;;;5033483;28;20053;-65
2022/08/29 00:12:06;;;;;;;8.55;3.67;;;14.50;99.90;;;;;;5015508;28;20053;-65
2022/08/29 00:14:32;;;;;;;7.15;3.55;;;14.60;99.90;;;;;;5033244;28;20164;-65
2022/08/29 00:16:57;;;;;;;8.57;3.50;;;14.90;99.90;;;;;;5033146;28;20075;-65
2022/08/29 00:19:23;;;;;;;9.13;3.90;;;14.70;99.90;;;;;;5033339;28;20092;-65
2022/08/29 00:21:49;;;;;;;6.07;3.58;;;14.70;99.90;;;;;;5033261;28;20108;-65
2022/08/29 00:24:15;;;;;;;6.70;3.75;;;14.90;99.90;;;;;;5033179;28;20041;-65
2022/08/29 00:26:41;;;;;;;10.63;4.32;;;14.80;99.90;;;;;;5015624;28;20053;-65
2022/08/29 00:29:07;;;;;;;7.65;3.95;;;14.60;99.90;;;;;;5014072;28;20440;-65
2022/08/29 00:31:32;;;;;;;11.68;4.03;;;14.70;99.90;;;;;;5015302;28;20045;-65
2022/08/29 00:33:58;;;;;;;8.88;4.18;;;14.60;99.90;;;;;;5014899;28;20053;-65
2022/08/29 00:36:25;;;;;;;10.05;4.05;;;14.70;99.90;;;;;;5033193;28;20033;-65
2022/08/29 00:38:51;;;;;;;7.35;3.67;;;;;;;;;;5032794;28;20360;-65
2022/08/29 00:41:17;;;;;;;7.78;3.80;;;14.60;99.90;;;;;;5032875;28;20037;-65
2022/08/29 00:43:42;;;;;;;6.90;3.63;;;14.70;99.90;;;;;;5032737;28;20080;-65
2022/08/29 00:46:08;;;;;;;9.15;3.55;;;14.70;99.90;;;;;;5032760;28;20037;-65
2022/08/29 00:48:36;;;;;;;7.15;4.13;;;14.70;99.90;;;;;;5015075;28;20045;-65
2022/08/29 00:51:07;;;;;;;10.02;5.22;;;14.80;99.90;;;;;;5015093;28;20077;-65
2022/08/29 00:53:42;;;;;;;8.93;4.13;;;14.70;99.90;;;;;;5014854;28;20563;-65
2022/08/29 00:56:08;;;;;;;8.82;3.90;;;14.70;99.90;;;;;;5032743;28;20026;-65
2022/08/29 00:58:39;;;;;;;7.60;4.32;;;14.80;99.90;;;;;;5032688;28;20038;-65
2022/08/29 01:01:05;;;;;;;6.28;3.83;;;14.70;99.90;;;;;;5001781;28;20037;-65
2022/08/29 01:03:33;;;;;;;7.75;3.50;;;14.90;99.90;;;;;;5032551;28;20374;-65
2022/08/29 01:06:01;;;;;;;10.10;3.85;;;14.70;99.90;;;;;;5015113;28;20088;-65
2022/08/29 01:08:26;;;;;;;10.55;3.85;;;15.00;99.90;;;;;;5032692;28;20049;-65
2022/08/29 01:13:40;;;;;;;;;;;14.70;99.90;;;;;;5015346;28;20053;-65
2022/08/29 01:16:08;;;;;;;10.80;3.85;;;14.90;99.90;;;;;;5032469;28;19924;-65
2022/08/29 01:18:35;;;;;;;8.13;4.18;;;15.00;99.90;;;;;;5015107;28;20037;-65
2022/08/29 01:21:12;;;;;;;8.68;4.45;;;14.70;99.90;;;;;;5032382;28;20038;-65
2022/08/29 01:23:49;;;;;;;12.40;5.03;;;14.80;99.90;;;;;;5032542;28;20095;-65
2022/08/29 01:26:14;;;;;;;6.55;4.10;;;14.90;99.90;;;;;;5032587;28;20117;-65
2022/08/29 01:28:51;;;;;;;8.52;4.38;;;14.80;99.90;;;;;;5014864;28;20144;-65
2022/08/29 01:31:21;;;;;;;7.78;4.03;;;14.90;99.90;;;;;;5032391;28;20064;-65
2022/08/29 01:33:50;;;;;;;8.00;3.75;;;14.90;99.90;;;;;;5032383;28;20077;-65
2022/08/29 01:36:23;;;;;;;7.43;3.38;;;14.90;99.90;;;;;;5014769;28;20487;-65
2022/08/29 01:38:48;;;;;;;8.57;3.92;;;14.80;99.90;;;;;;5032629;28;20040;-65
2022/08/29 01:41:16;;;;;;;11.15;4.20;;;14.80;99.90;;;;;;5032484;28;20384;-65
2022/08/29 01:43:44;;;;;;;8.10;4.57;;;14.90;99.90;;;;;;5032193;28;20495;-65
2022/08/29 01:46:13;;;;;;;10.52;4.20;;;14.80;99.90;;;;;;5014715;28;20064;-65
2022/08/29 01:48:41;;;;;;;9.02;3.95;;;14.80;99.90;;;;;;5035873;28;20042;-65
2022/08/29 01:51:08;;;;;;;6.88;3.90;;;14.70;99.90;;;;;;5018133;28;20045;-65
2022/08/29 01:53:33;;;;;;;5.85;3.45;;;14.90;99.90;;;;;;5035891;28;20087;-65
2022/08/29 01:55:59;;;;;;;10.82;4.22;;;;;;;;;;5018089;28;20033;-65
2022/08/29 01:58:25;;;;;;;7.70;4.45;;;14.70;99.90;;;;;;5017917;28;20048;-65
2022/08/29 02:00:51;;;;;;;9.38;3.83;;;14.70;99.90;;;;;;5018148;28;20037;-65
2022/08/29 02:03:17;;;;;;;5.90;3.92;;;14.80;99.90;;;;;;5017985;28;20069;-65
2022/08/29 02:05:47;;;;;;;10.27;4.20;;;15.10;99.90;;;;;;5035529;28;20041;-65
2022/08/29 02:08:13;;;;;;;7.90;4.30;;;14.90;99.90;;;;;;5018102;28;20092;-65
2022/08/29 02:10:38;;;;;;;7.75;4.15;;;14.90;99.90;;;;;;5035406;28;20124;-65
2022/08/29 02:13:04;;;;;;;8.10;3.95;;;14.80;99.90;;;;;;5035402;28;20128;-65
2022/08/29 02:15:29;;;;;;;7.57;3.42;;;14.80;99.90;;;;;;5035421;28;20041;-65
2022/08/29 02:17:55;;;;;;;6.65;3.80;;;14.90;99.90;;;;;;5035524;28;20095;-65
2022/08/29 02:20:21;;;;;;;7.97;4.30;;;14.90;99.90;;;;;;5017631;28;20564;-65
2022/08/29 02:22:46;;;;;;;7.13;4.15;;;14.70;99.90;;;;;;5017543;28;20423;-65
2022/08/29 02:27:56;;;;;;;7.50;4.65;;;14.80;99.90;;;;;;5017476;28;20499;-65
2022/08/29 02:30:22;;;;;;;11.60;4.35;;;15.00;99.90;;;;;;5035276;28;20041;-65
2022/08/29 02:32:49;;;;;;;7.18;3.92;;;14.80;99.90;;;;;;5034979;28;20041;-65
2022/08/29 02:35:14;;;;;;;9.32;3.83;;;15.10;99.90;;;;;;5017344;28;20052;-65
2022/08/29 02:37:40;;;;;;;8.50;3.45;;;14.70;99.90;;;;;;5035013;28;20466;-65
2022/08/29 02:40:06;;;;;;;9.25;4.38;;;14.80;99.90;;;;;;5035058;28;20391;-65
2022/08/29 02:42:32;;;;;;;8.40;4.00;;;14.70;99.90;;;;;;5017197;28;20140;-65
2022/08/29 02:44:58;;;;;;;8.25;4.05;;;14.80;99.90;;;;;;5017114;28;20136;-65
2022/08/29 02:47:24;;;;;;;11.43;4.55;;;14.60;99.90;;;;;;5017182;28;20037;-65
2022/08/29 02:49:50;;;;;;;6.70;3.75;;;14.80;99.90;;;;;;5034652;28;20045;-65
2022/08/29 02:52:16;;;;;;;9.13;4.05;;;14.60;99.90;;;;;;5034759;28;20038;-65
2022/08/29 02:54:42;;;;;;;11.05;4.20;;;14.70;99.90;;;;;;5034998;28;20398;-65
2022/08/29 02:57:07;;;;;;;6.28;4.30;;;14.70;99.90;;;;;;5016918;28;20049;-65
2022/08/29 02:59:33;;;;;;;9.77;3.95;;;14.80;99.90;;;;;;5015885;28;20037;-65
2022/08/29 03:01:59;;;;;;;10.55;3.80;;;14.70;99.90;;;;;;5034319;28;20033;-65
2022/08/29 03:04:24;;;;;;;7.38;3.28;;;14.60;99.90;;;;;;5034485;28;20129;-65
2022/08/29 03:06:50;;;;;;;10.35;4.43;;;14.80;99.90;;;;;;5016721;28;20479;-65
2022/08/29 03:09:15;;;;;;;8.57;4.18;;;15.00;99.90;;;;;;5034578;28;20045;-65
2022/08/29 03:11:41;;;;;;;10.55;4.20;;;14.80;99.90;;;;;;5016960;28;20033;-65
2022/08/29 03:14:07;;;;;;;8.93;3.97;;;15.00;99.90;;;;;;5034205;28;20099;-65
2022/08/29 03:16:33;;;;;;;6.85;3.97;;;14.80;99.90;;;;;;5034227;28;20041;-65
2022/08/29 03:18:59;;;;;;;7.47;3.83;;;14.90;99.90;;;;;;5016479;28;20049;-65
2022/08/29 03:21:26;;;;;;;8.77;4.55;;;15.10;99.90;;;;;;5033498;28;20052;-65
2022/08/29 03:23:54;;;;;;;8.00;4.20;;;15.00;99.90;;;;;;5033983;28;20081;-65
2022/08/29 03:26:19;;;;;;;9.90;4.05;;;15.00;99.90;;;;;;5016619;28;20045;-65
2022/08/29 03:28:45;;;;;;;8.25;3.70;;;14.70;99.90;;;;;;5034007;28;20488;-65
2022/08/29 03:31:11;;;;;;;7.53;3.97;;;15.00;99.90;;;;;;5033725;28;20037;-65
2022/08/29 03:33:36;;;;;;;8.50;4.03;;;15.00;99.90;;;;;;5016149;28;20048;-65
2022/08/29 03:36:04;;;;;;;9.73;4.30;;;14.90;99.90;;;;;;5033828;28;20045;-65
2022/08/29 03:38:29;;;;;;;7.82;3.85;;;14.90;99.90;;;;;;5033864;28;20041;-65
2022/08/29 03:40:55;;;;;;;8.75;3.70;;;14.90;99.90;;;;;;5016115;28;20094;-65
2022/08/29 03:43:21;;;;;;;9.45;4.68;;;14.80;99.90;;;;;;5016058;28;20095;-65
2022/08/29 03:45:48;;;;;;;6.47;3.72;;;14.90;99.90;;;;;;5016283;28;20092;-65
2022/08/29 03:48:14;;;;;;;6.47;3.53;;;14.90;99.90;;;;;;5033840;28;20045;-65
2022/08/29 03:50:40;;;;;;;8.45;3.78;;;14.80;99.90;;;;;;5033754;28;20038;-65
2022/08/29 03:53:06;;;;;;;8.43;3.97;;;15.10;99.90;;;;;;5033617;28;20083;-65
2022/08/29 03:55:32;;;;;;;6.90;3.65;;;14.90;99.90;;;;;;5016074;28;20041;-65
2022/08/29 03:57:58;;;;;;;11.07;4.15;;;15.20;99.90;;;;;;5033668;28;20037;-65
2022/08/29 04:00:24;;;;;;;6.35;3.63;;;14.90;99.90;;;;;;5015498;28;20121;-65
2022/08/29 04:02:52;;;;;;;10.20;3.95;;;14.80;99.90;;;;;;5033450;28;20049;-65
2022/08/29 04:05:18;;;;;;;5.95;3.65;;;14.90;99.90;;;;;;5015506;28;20088;-65
2022/08/29 04:07:52;;;;;;;10.07;3.75;;;14.70;99.90;;;;;;5033183;28;20519;-65
2022/08/29 04:10:26;;;;;;;10.60;3.45;;;14.80;99.90;;;;;;4998971;28;20046;-65
2022/08/29 04:12:52;;;;;;;9.85;2.92;;;14.80;99.90;;;;;;5033351;28;20091;-65
2022/08/29 04:15:19;;;;;;;9.38;3.22;;;14.80;99.90;;;;;;5033030;28;20117;-65
2022/08/29 04:17:44;;;;;;;7.57;3.85;;;14.80;99.90;;;;;;5015429;28;20045;-65
2022/08/29 04:20:11;;;;;;;7.50;3.70;;;14.80;99.90;;;;;;5015620;28;20048;-65
2022/08/29 04:22:39;;;;;;;8.85;3.88;;;14.80;99.90;;;;;;5033142;28;20399;-65
2022/08/29 04:25:08;;;;;;;10.35;3.67;;;14.80;99.90;;;;;;5015471;28;20462;-65
2022/08/29 04:27:35;;;;;;;10.80;3.80;;;14.70;99.90;;;;;;5032980;28;20407;-65
2022/08/29 04:30:03;;;;;;;10.38;3.75;;;14.70;99.90;;;;;;5015437;28;20049;-65
2022/08/29 04:32:29;;;;;;;7.88;3.40;;;14.80;99.90;;;;;;5015361;28;20399;-65
2022/08/29 04:34:57;;;;;;;9.07;4.45;;;14.70;99.90;;;;;;5033065;28;20103;-65
2022/08/29 04:37:23;;;;;;;9.05;3.75;;;14.80;99.90;;;;;;5015205;28;20048;-65
2022/08/29 04:39:48;;;;;;;7.78;3.53;;;14.80;99.90;;;;;;5032841;28;20045;-65
2022/08/29 04:42:16;;;;;;;7.10;3.85;;;14.90;99.90;;;;;;5015361;28;20037;-65
2022/08/29 04:44:41;;;;;;;8.07;4.15;;;14.90;99.90;;;;;;5032701;28;20488;-65
2022/08/29 04:47:07;;;;;;;9.70;3.78;;;14.80;99.90;;;;;;5033052;28;20044;-65
2022/08/29 04:49:32;;;;;;;9.55;3.97;;;14.90;99.90;;;;;;5032957;28;20112;-65
2022/08/29 04:51:58;;;;;;;9.93;4.35;;;14.70;99.90;;;;;;5014913;28;20446;-65
2022/08/29 04:54:24;;;;;;;10.10;4.43;;;14.80;99.90;;;;;;5032801;28;20037;-65
2022/08/29 04:56:49;;;;;;;8.63;4.40;;;14.90;99.90;;;;;;5014973;28;20124;-65
2022/08/29 04:59:16;;;;;;;8.23;4.47;;;14.90;99.90;;;;;;5015082;28;20041;-65
2022/08/29 05:01:41;;;;;;;11.13;3.55;;;15.00;99.90;;;;;;5032919;28;20116;-65
2022/08/29 05:04:07;;;;;;;9.38;4.00;;;14.80;99.90;;;;;;5018685;28;20124;-65
2022/08/29 05:06:33;;;;;;;10.27;4.80;;;15.00;99.90;;;;;;5014828;28;20057;-65
2022/08/29 05:08:58;;;;;;;7.43;3.80;;;14.90;99.90;;;;;;5032734;28;20045;-65
2022/08/29 05:11:24;;;;;;;10.88;4.88;;;15.00;99.90;;;;;;5014718;28;20037;-65
2022/08/29 05:13:52;;;;;;;11.60;4.07;;;15.10;99.90;;;;;;5032465;28;20168;-65
2022/08/29 05:16:17;;;;;;;10.75;4.50;;;15.10;99.90;;;;;;5032809;28;20052;-65
2022/08/29 05:18:45;;;;;;;11.43;4.45;;;15.00;99.90;;;;;;5015071;28;20037;-65
2022/08/29 05:21:12;;;;;;;6.60;4.25;;;15.00;99.90;;;;;;5032829;28;20033;-65
2022/08/29 05:23:38;;;;;;;9.98;4.43;;;15.00;99.90;;;;;;5036463;28;20037;-65
2022/08/29 05:26:04;;;;;;;11.77;4.60;;;15.00;99.90;;;;;;5035915;28;20503;-65
2022/08/29 05:28:31;;;;;;;7.97;4.10;;;15.00;99.90;;;;;;5036090;28;20041;-65
2022/08/29 05:30:57;;;;;;;11.85;4.53;;;14.90;99.90;;;;;;5036194;28;20051;-65
2022/08/29 05:33:22;;;;;;;9.82;4.22;;;15.10;99.90;;;;;;5018307;28;20049;-65
2022/08/29 05:35:48;;;;;;;11.07;4.13;;;15.20;99.90;;;;;;5035866;28;20040;-65
2022/08/29 05:38:14;;;;;;;7.82;4.00;;;15.00;99.90;;;;;;5036079;28;20048;-65
2022/08/29 05:40:40;;;;;;;9.15;3.72;;;15.00;99.90;;;;;;5018294;28;20487;-65
2022/08/29 05:43:09;;;;;;;10.15;3.97;;;15.20;99.90;;;;;;5035880;28;20037;-65
2022/08/29 05:45:36;;;;;;;5.82;3.10;;;15.10;99.90;;;;;;5034598;28;20038;-65
2022/08/29 05:48:07;;;;;;;9.18;4.18;;;15.20;99.90;;;;;;5015433;28;20045;-65
2022/08/29 05:50:38;;;;;;;8.45;4.28;;;15.00;99.90;;;;;;5018177;28;20037;-65
2022/08/29 05:53:03;;;;;;;8.15;4.03;;;15.10;99.90;;;;;;5034949;28;20044;-65
2022/08/29 05:55:29;;;;;;;9.30;4.07;;;15.20;99.90;;;;;;5035712;28;20037;-65
2022/08/29 05:57:54;;;;;;;8.43;4.25;;;15.20;99.90;;;;;;5016721;28;20068;-65
2022/08/29 06:00:20;;;;;;;7.93;4.28;;;15.10;99.90;;;;;;5035354;28;20077;-65
2022/08/29 06:02:45;;;;;;;7.45;4.18;;;15.30;99.90;;;;;;5035734;28;20038;-65
2022/08/29 06:05:11;;;;;;;7.55;4.32;;;15.20;99.90;;;;;;5026678;28;20060;-65
2022/08/29 06:07:37;;;;;;;7.63;3.45;;;15.30;99.90;;;;;;5017874;28;20052;-65
2022/08/29 06:10:05;;;;;;;9.93;3.38;;;15.30;99.90;;;;;;5035229;28;20030;-65
2022/08/29 06:12:32;;;;;;;13.10;3.53;;;15.30;99.90;;;;;;5035371;28;20045;-65
2022/08/29 06:14:57;;;;;;;7.40;3.70;;;15.50;99.90;;;;;;5035577;28;20037;-65
2022/08/29 06:17:23;;;;;;;8.60;3.25;;;15.50;99.90;;;;;;5001357;28;20223;-65
2022/08/29 06:19:50;;;;;;;9.43;3.92;;;15.60;99.90;;;;;;5035351;28;20041;-65
2022/08/29 06:22:18;;;;;;;7.68;4.05;;;15.70;99.90;;;;;;5017295;28;20037;-65
2022/08/29 06:24:44;;;;;;;6.28;3.35;;;15.70;99.90;;;;;;5035074;28;20048;-65
2022/08/29 06:27:11;;;;;;;11.43;4.10;;;15.60;99.90;;;;;;5034696;28;20041;-65
2022/08/29 06:29:37;;;;;;;6.57;3.40;;;15.80;99.90;;;;;;5034770;28;20034;-65
2022/08/29 06:32:03;;;;;;;8.98;4.20;;;15.90;99.90;;;;;;5016705;28;20431;-65
2022/08/29 06:34:29;;;;;;;10.27;4.50;;;15.70;99.90;;;;;;5034424;28;20037;-65
2022/08/29 06:36:55;;;;;;;10.75;5.05;;;15.90;99.90;;;;;;5034454;28;20083;-65
2022/08/29 06:39:21;;;;;;;11.85;5.00;;;15.70;99.90;;;;;;5016623;28;20088;-65
2022/08/29 06:41:46;;;;;;;12.65;3.97;;;15.80;99.90;;;;;;5034015;28;20069;-65
2022/08/29 06:44:12;;;;;;;8.63;3.58;;;16.00;99.90;;;;;;5033778;28;20088;-65
2022/08/29 06:46:45;;;;;;;11.15;4.03;;;16.10;99.90;;;;;;5016972;28;20041;-65
2022/08/29 06:49:13;;;;;;;9.82;3.70;;;15.80;99.90;;;;;;5017011;28;20048;-65
2022/08/29 06:51:42;;;;;;;9.52;3.97;;;16.00;99.90;;;;;;5034082;28;20033;-65
2022/08/29 06:54:10;;;;;;;7.25;3.15;;;16.10;99.90;;;;;;5016541;28;20116;-65
2022/08/29 06:56:36;;;;;;;7.25;3.50;;;16.20;99.90;;;;;;5031574;28;20038;-64
2022/08/29 06:59:02;;;;;;;9.65;3.25;;;16.20;99.90;;;;;;5016228;28;20094;-64
2022/08/29 07:01:28;;;;;;;10.20;3.63;;;16.00;99.90;;;;;;5015575;28;20428;-65
2022/08/29 07:03:55;;;;;;;6.50;3.30;;;16.30;99.90;;;;;;5032206;28;20053;-65
2022/08/29 07:06:22;;;;;;;8.77;3.33;;;16.20;99.90;;;;;;5016658;28;20080;-65
2022/08/29 07:08:48;;;;;;;11.27;3.00;;;16.20;99.90;;;;;;5033711;28;20439;-65
2022/08/29 07:11:14;;;;;;;9.20;3.28;;;16.30;99.90;;;;;;5031314;28;20498;-66
2022/08/29 07:13:40;;;;;;;5.32;2.53;;;16.30;99.90;;;;;;5031604;28;20416;-65
2022/08/29 07:16:11;;;;;;;11.30;3.35;;;16.60;99.90;;;;;;5013914;28;20041;-64
2022/08/29 07:18:37;;;;;;;10.15;3.35;;;16.60;99.90;;;;;;5034188;28;20431;-64
2022/08/29 07:21:07;;;;;;;5.75;2.95;;;16.70;99.90;;;;;;5033924;28;20034;-64
2022/08/29 07:23:33;;;;;;;6.57;2.53;;;16.70;99.90;;;;;;5033879;28;20399;-64
2022/08/29 07:26:27;;;;;;;8.90;2.67;;;17.00;99.90;;;;;;5016155;28;20575;-64
2022/08/29 07:28:56;;;;;;;9.45;2.50;;;17.00;99.90;;;;;;5034088;28;20084;-65
2022/08/29 07:31:22;;;;;;;6.85;2.42;;;17.00;99.90;;;;;;5007396;28;20116;-63
2022/08/29 07:33:48;;;;;;;11.73;3.33;;;17.40;99.90;;;;;;5015711;28;20065;-64
2022/08/29 07:36:13;;;;;;;8.23;2.30;;;17.40;99.90;;;;;;5019238;28;20488;-64
2022/08/29 07:38:39;;;;;;;11.45;2.97;;;17.50;99.90;;;;;;5000953;28;20045;-64
2022/08/29 07:41:13;;;;;;;6.47;2.50;;;17.50;99.90;;;;;;4996742;28;20049;-65
2022/08/29 07:43:38;;;;;;;5.72;2.38;;;18.00;99.90;;;;;;4996889;28;20451;-64
2022/08/29 07:46:09;;;;;;;9.93;2.72;;;17.90;99.90;;;;;;5022214;28;20041;-64
2022/08/29 07:48:35;;;;;;;5.57;2.38;;;18.10;99.90;;;;;;5002999;28;20073;-64
2022/08/29 07:51:04;;;;;;;10.20;2.97;;;18.10;99.90;;;;;;5014843;28;20392;-65
2022/08/29 07:53:30;;;;;;;7.40;1.75;;;18.40;99.90;;;;;;5025465;28;20099;-64
2022/08/29 07:55:56;;;;;;;5.70;2.28;;;18.50;99.90;;;;;;5031878;28;20071;-65
2022/08/29 07:58:21;;;;;;;6.90;2.28;;;18.40;99.90;;;;;;5015649;28;20132;-64
2022/08/29 08:00:47;;;;;;;4.05;1.50;;;18.20;99.90;;;;;;5033090;28;20484;-64
2022/08/29 08:03:14;;;;;;;11.27;2.00;;;18.40;99.90;;;;;;5015633;28;20396;-64
2022/08/29 08:05:40;;;;;;;7.65;1.88;;;18.50;99.90;;;;;;5015370;28;20124;-64
2022/08/29 08:08:08;;;;;;;8.38;2.72;;;18.50;99.90;;;;;;5033279;28;20614;-65
2022/08/29 08:10:34;;;;;;;3.80;1.60;;;18.80;99.90;;;;;;5009861;28;20106;-65
2022/08/29 08:13:00;;;;;;;6.68;1.98;;;18.80;99.90;;;;;;5009457;28;20048;-64
2022/08/29 08:15:26;;;;;;;3.83;1.63;;;19.00;99.90;;;;;;4996169;28;20034;-64
2022/08/29 08:17:52;;;;;;;5.80;1.67;;;19.00;99.90;;;;;;5013391;28;20401;-65
2022/08/29 08:20:18;;;;;;;6.45;1.60;;;19.20;99.90;;;;;;4995969;28;20037;-65
2022/08/29 08:22:43;;;;;;;4.80;1.60;;;19.30;99.90;;;;;;5014475;28;20526;-64
2022/08/29 08:25:09;;;;;;;4.95;1.83;;;19.40;99.90;;;;;;5014305;28;20072;-65
2022/08/29 08:27:34;;;;;;;8.77;1.65;;;19.10;99.90;;;;;;5030575;28;20041;-65
2022/08/29 08:30:00;;;;;;;7.43;1.60;;;19.40;99.90;;;;;;5032856;28;20388;-64
2022/08/29 08:32:26;;;;;;;5.75;1.70;;;19.10;99.90;;;;;;5032405;28;20065;-64
2022/08/29 08:34:51;;;;;;;8.02;1.58;;;19.10;99.90;;;;;;5015255;28;20038;-64
2022/08/29 08:37:17;;;;;;;7.90;1.60;;;19.20;99.90;;;;;;5032316;28;20099;-64
2022/08/29 08:39:43;;;;;;;8.00;1.60;;;19.30;99.90;;;;;;5032562;28;20033;-64
2022/08/29 08:42:41;;;;;;;3.95;1.45;;;19.30;99.90;;;;;;5015214;28;20045;-64
2022/08/29 08:45:18;;;;;;;7.10;1.80;;;19.00;99.90;;;;;;5032478;28;20528;-64
2022/08/29 08:47:50;;;;;;;5.70;1.45;;;19.30;99.90;;;;;;5023679;28;20117;-64
2022/08/29 08:50:20;;;;;;;4.15;1.80;;;19.20;99.90;;;;;;5014909;28;20116;-64
2022/08/29 08:52:57;;;;;;;7.80;1.88;;;19.10;99.90;;;;;;5007190;28;20045;-64
2022/08/29 08:55:41;;;;;;;6.05;1.75;;;19.50;99.90;;;;;;5014913;28;20120;-63
2022/08/29 08:58:25;;;;;;;4.78;1.45;;;19.20;99.90;;;;;;5017511;28;20038;-64
2022/08/29 09:01:02;;;;;;;9.20;1.90;;;19.10;99.90;;;;;;5018292;28;20037;-64
2022/08/29 09:03:45;;;;;;;4.85;2.55;;;19.20;99.90;;;;;;5036563;28;20052;-65
2022/08/29 09:06:30;;;;;;;8.20;1.95;;;19.20;99.90;;;;;;5008171;28;20099;-63
2022/08/29 09:09:12;;;;;;;7.57;2.42;;;19.20;99.90;;;;;;5036711;28;20453;-63
2022/08/29 09:11:54;;;;;;;7.75;1.92;;;19.20;99.90;;;;;;5036301;28;20061;-63
2022/08/29 09:14:45;;;;;;;5.38;1.80;;;19.20;99.90;;;;;;5034256;28;20026;-64
2022/08/29 09:17:35;;;;;;;9.30;1.95;;;19.40;99.90;;;;;;5036619;28;20046;-65
2022/08/29 09:20:05;;;;;;;12.07;2.08;;;19.60;99.90;;;;;;5027436;28;20510;-65
2022/08/29 09:22:33;;;;;;;6.40;2.15;;;19.60;99.90;;;;;;5035978;28;20029;-65
2022/08/29 09:25:04;;;;;;;5.00;1.80;;;19.50;99.90;;;;;;5017169;28;20073;-65
2022/08/29 09:27:32;;;;;;;13.07;2.17;;;19.40;99.90;;;;;;5006454;28;20037;-65
2022/08/29 09:30:07;;;;;;;8.85;2.22;;;19.40;99.90;;;;;;5035882;28;20073;-65
2022/08/29 09:32:49;;;;;;;6.90;2.20;;;19.40;99.90;;;;;;5033918;28;20041;-65
2022/08/29 09:35:36;;;;;;;7.82;1.60;;;19.50;99.90;;;;;;5035680;28;20041;-65
2022/08/29 09:38:10;;;;;;;5.93;2.15;;;19.60;99.90;;;;;;5017881;28;20072;-65
2022/08/29 09:41:02;;;;;;;5.13;1.87;;;19.50;99.90;;;;;;5016005;28;20048;-65
2022/08/29 09:43:37;;;;;;;9.52;2.10;;;19.60;99.90;;;;;;5018065;28;20041;-65
2022/08/29 09:46:09;;;;;;;;;;;19.70;99.90;;;;;;5018792;28;20439;-65
2022/08/29 09:48:46;;;;;;;8.07;2.05;;;19.50;99.90;;;;;;5018012;28;19960;-65
2022/08/29 09:51:31;;;;;;;5.85;1.60;;;19.80;99.90;;;;;;5033226;28;20048;-64
2022/08/29 09:54:31;;;;;;;6.05;2.00;;;19.50;99.90;;;;;;5015067;28;20046;-65
2022/08/29 09:56:57;;;;;;;9.27;1.92;;;19.80;99.90;;;;;;5023156;28;20045;-65
2022/08/29 09:59:25;;;;;;;6.70;2.15;;;19.50;99.90;;;;;;5017827;28;20038;-65
2022/08/29 10:02:21;;;;;;;8.90;2.63;;;19.80;99.90;;;;;;5018511;28;20057;-65
2022/08/29 10:04:52;;;;;;;6.30;1.55;;;19.50;99.90;;;;;;5016885;28;20132;-65
2022/08/29 10:07:29;;;;;;;4.15;1.58;;;19.80;99.90;;;;;;5017940;28;20064;-65
2022/08/29 10:09:59;;;;;;;4.43;1.52;;;20.00;99.90;;;;;;5016068;28;20446;-64
2022/08/29 10:12:37;;;;;;;6.65;1.60;;;19.60;99.90;;;;;;5017562;28;20037;-65
2022/08/29 10:15:09;;;;;;;9.70;2.35;;;20.10;99.90;;;;;;5015209;28;20488;-65
2022/08/29 10:20:34;;;;;;;6.40;1.98;;;19.70;99.90;;;;;;5016856;28;20049;-65
2022/08/29 10:23:15;;;;;;;7.50;1.60;;;19.50;99.90;;;;;;5016440;28;20516;-65
2022/08/29 10:25:41;;;;;;;7.97;1.90;;;19.80;99.90;;;;;;5016791;28;20034;-65
2022/08/29 10:28:09;;;;;;;7.72;2.15;;;19.70;99.90;;;;;;5000654;28;20573;-65
2022/08/29 10:30:55;;;;;;;5.45;2.10;;;19.80;99.90;;;;;;5017089;28;20099;-65
2022/08/29 10:33:23;;;;;;;8.30;2.30;;;20.00;99.90;;;;;;4982097;28;20054;-65
2022/08/29 10:35:54;;;;;;;9.45;2.38;;;19.80;99.90;;;;;;5005836;28;20041;-65
2022/08/29 10:38:44;;;;;;;9.23;1.80;;;20.00;99.90;;;;;;5015908;28;20030;-65
2022/08/29 10:41:36;;;;;;;11.15;1.90;;;20.10;99.90;;;;;;4998478;28;20034;-65
2022/08/29 10:44:09;;;;;;;7.10;1.92;;;20.20;99.90;;;;;;4979081;28;20042;-65
2022/08/29 10:47:02;;;;;;;5.40;1.65;;;20.20;99.90;;;;;;5000764;28;20053;-65
2022/08/29 10:49:54;;;;;;;5.60;2.00;;;20.10;99.90;;;;;;4998336;28;20048;-65
2022/08/29 10:52:44;;;;;;;6.63;1.80;;;20.10;99.90;;;;;;4997551;28;20113;-64
2022/08/29 10:55:36;;;;;;;9.20;2.50;;;20.40;99.90;;;;;;4997775;28;20053;-65
2022/08/29 10:58:04;;;;;;;4.45;1.45;;;20.20;99.90;;;;;;4995477;28;20057;-65
2022/08/29 11:00:51;;;;;;;8.35;2.15;;;20.40;99.90;;;;;;5021030;28;20037;-66
2022/08/29 11:03:23;;;;;;;8.82;2.40;;;20.40;99.90;;;;;;5016682;28;20133;-67
2022/08/29 11:06:00;;;;;;;7.10;2.03;;;20.30;99.90;;;;;;5012885;28;20049;-65
2022/08/29 11:08:50;;;;;;;10.15;2.10;;;21.60;99.90;;;;;;4998564;28;20657;-65
2022/08/29 11:11:18;;;;;;;8.63;2.15;;;20.20;99.90;;;;;;5014520;28;20040;-65
2022/08/29 11:13:57;;;;;;;7.45;2.50;;;20.40;99.90;;;;;;5013397;28;20052;-65
2022/08/29 11:16:35;;;;;;;5.65;2.28;;;20.20;99.90;;;;;;4999211;28;20045;-65
2022/08/29 11:19:23;;;;;;;6.80;2.40;;;20.40;99.90;;;;;;5022050;28;20112;-65
2022/08/29 11:21:59;;;;;;;7.97;2.17;;;20.50;99.90;;;;;;5015407;28;20488;-65
2022/08/29 11:24:29;;;;;;;15.50;4.32;;;20.60;99.90;;;;;;5016558;28;20045;-65
2022/08/29 11:27:04;;;;;;;7.03;2.28;;;20.70;99.90;;;;;;4999513;28;20037;-65
2022/08/29 11:29:44;;;;;;;9.13;3.15;;;20.80;99.90;;;;;;5013559;28;20091;-65
2022/08/29 11:32:34;;;;;;;9.55;2.35;;;20.80;99.90;;;;;;5015389;28;20411;-65
2022/08/29 11:35:19;;;;;;;7.40;2.20;;;20.90;99.90;;;;;;5016099;28;20041;-65
2022/08/29 11:38:02;;;;;;;8.23;1.63;;;20.80;99.90;;;;;;5016266;28;20076;-65
2022/08/29 11:40:39;;;;;;;8.82;2.13;;;21.00;99.90;;;;;;5014915;28;20077;-65
2022/08/29 11:43:09;;;;;;;10.77;2.65;;;21.20;99.90;;;;;;4999230;28;20253;-66
2022/08/29 11:45:39;;;;;;;7.47;2.75;;;21.30;99.90;;;;;;5001052;28;20103;-64
2022/08/29 11:48:27;;;;;;;8.02;2.58;;;21.10;99.90;;;;;;5000890;28;20068;-65
2022/08/29 11:50:52;;;;;;;9.55;2.70;;;21.20;99.90;;;;;;4997072;28;20046;-65
2022/08/29 11:53:33;;;;;;;8.93;2.80;;;21.50;99.90;;;;;;5015027;28;20040;-65
2022/08/29 11:56:11;;;;;;;13.35;3.58;;;21.50;99.90;;;;;;5013829;28;20037;-65
2022/08/29 11:58:39;;;;;;;7.30;2.60;;;21.20;99.90;;;;;;4998312;28;20037;-65
2022/08/29 12:01:07;;;;;;;8.68;2.75;;;21.40;99.90;;;;;;4997726;28;20042;-65
2022/08/29 12:03:33;;;;;;;11.10;2.42;;;21.50;99.90;;;;;;5018983;28;20081;-66
2022/08/29 12:06:13;;;;;;;13.07;2.30;;;21.70;99.90;;;;;;4997556;28;20077;-65
2022/08/29 12:09:07;;;;;;;8.88;3.20;;;21.70;99.90;;;;;;5014231;28;20407;-65
2022/08/29 12:11:57;;;;;;;8.30;3.33;;;21.70;99.90;;;;;;4998219;28;20062;-65
2022/08/29 12:14:42;;;;;;;12.60;2.90;;;21.80;99.90;;;;;;4995596;28;20451;-65
2022/08/29 12:17:30;;;;;;;9.77;2.92;;;22.00;99.90;;;;;;5019410;28;20041;-65
2022/08/29 12:19:56;;;;;;;9.23;2.95;;;23.40;99.90;;;;;;4994704;28;20042;-65
2022/08/29 12:22:43;;;;;;;7.85;2.60;;;21.90;99.90;;;;;;4998245;28;20044;-65
2022/08/29 12:25:52;;;;;;;8.05;2.30;;;21.90;99.90;;;;;;5016376;28;20038;-65
2022/08/29 12:28:22;;;;;;;9.23;3.22;;;21.70;99.90;;;;;;5006138;28;20504;-64
2022/08/29 12:30:57;;;;;;;13.02;3.30;;;21.50;99.90;;;;;;5026186;28;20108;-65
2022/08/29 12:33:41;;;;;;;;;;;21.60;99.90;;;;;;5010896;28;20064;-65
2022/08/29 12:36:31;;;;;;;11.77;3.17;;;21.60;99.90;;;;;;5007821;28;19925;-65
2022/08/29 12:39:13;;;;;;;12.10;3.20;;;21.50;99.90;;;;;;4989415;28;20488;-65
2022/08/29 12:41:49;;;;;;;12.93;2.78;;;21.60;99.90;;;;;;5016486;28;20049;-65
2022/08/29 12:44:21;;;;;;;9.13;2.72;;;21.70;99.90;;;;;;5026728;28;20045;-65
2022/08/29 12:46:52;;;;;;;10.65;3.45;;;21.60;99.90;;;;;;5027183;28;20048;-65
2022/08/29 12:49:34;;;;;;;8.27;3.42;;;21.70;99.90;;;;;;5009522;28;20095;-65
2022/08/29 12:52:04;;;;;;;13.68;2.70;;;21.50;99.90;;;;;;5027384;28;20060;-65
2022/08/29 12:54:37;;;;;;;10.52;2.83;;;21.70;99.90;;;;;;5005992;28;20092;-65
2022/08/29 12:57:17;;;;;;;9.10;2.67;;;21.80;99.90;;;;;;5008227;28;20091;-65
2022/08/29 12:59:45;;;;;;;12.30;2.92;;;21.50;99.90;;;;;;4994715;28;20075;-65
2022/08/29 13:02:29;;;;;;;14.05;2.53;;;21.70;99.90;;;;;;5004880;28;20040;-65
2022/08/29 13:04:56;;;;;;;10.07;3.17;;;21.80;99.90;;;;;;5019772;28;20050;-65
2022/08/29 13:07:22;;;;;;;8.20;2.65;;;21.70;99.90;;;;;;4999637;28;20069;-64
2022/08/29 13:09:54;;;;;;;14.13;2.80;;;21.40;99.90;;;;;;5013480;28;20484;-65
2022/08/29 13:12:31;;;;;;;13.43;2.90;;;21.60;99.90;;;;;;5013884;28;20034;-65